Flight Track Log - Related Links

Times and Time Zones

All times are in EDT time to prevent confusion due to time zone crossing. See the USC110 flight status page for this flight to view local times or setup timezone preferences in your user account.

Time Position Orientation Groundspeed Altitude Reporting Facility
EDT Latitude Longitude Course Direction KTS MPH feet Rate Location/Type
Tue 05:23:03 AM 39.7989 -82.9522 201° Southwest 102 117 1,600  Level Indianapolis Center
Tue 05:23:51 AM 39.7769 -82.9633 201° Southwest 124 143 2,400 870 Climbing Indianapolis Center
Tue 05:24:12 AM 39.7647 -82.9600 168° South 119 137 2,600 787 Climbing Indianapolis Center
Tue 05:24:52 AM 39.7422 -82.9539 168° South 125 144 3,200 885 Climbing Indianapolis Center
Tue 05:25:13 AM 39.7311 -82.9489 161° South 121 139 3,500 900 Climbing Indianapolis Center
Tue 05:25:52 AM 39.7075 -82.9389 162° South 130 150 4,100 885 Climbing Indianapolis Center
Tue 05:26:14 AM 39.6961 -82.9344 163° South 127 146 4,400 951 Climbing Indianapolis Center
Tue 05:27:14 AM 39.6589 -82.9219 166° South 135 155 5,400 942 Climbing Indianapolis Center
Tue 05:28:15 AM 39.6225 -82.9103 166° South 134 154 6,300 885 Climbing Indianapolis Center
Tue 05:29:16 AM 39.5864 -82.8972 164° South 133 153 7,200 793 Climbing Indianapolis Center
Tue 05:30:16 AM 39.5497 -82.8842 165° South 134 154 7,900 744 Climbing Indianapolis Center
Tue 05:31:17 AM 39.5136 -82.8719 165° South 133 153 8,700 492 Climbing Indianapolis Center
Tue 05:32:18 AM 39.4744 -82.8589 166° South 141 162 8,900 98 Climbing Indianapolis Center
Tue 05:33:19 AM 39.4203 -82.8403 165° South 186 214 8,900  Level Indianapolis Center
Tue 05:34:19 AM 39.3625 -82.8194 164° South 207 238 8,900  Level Indianapolis Center
Tue 05:35:20 AM 39.3044 -82.7992 165° South 213 245 8,900  Level Indianapolis Center
Tue 05:36:21 AM 39.2458 -82.7806 166° South 215 247 8,900  Level Indianapolis Center
Tue 05:37:21 AM 39.1872 -82.7619 166° South 215 247 8,900 50 Level Indianapolis Center
Tue 05:38:22 AM 39.1361 -82.7428 164° South 215 247 9,000 50 Climbing Indianapolis Center
Tue 05:39:22 AM 39.0789 -82.7236 165° South 214 246 9,000  Level Indianapolis Center
Tue 05:40:23 AM 39.0211 -82.7025 164° South 216 249 9,000  Level Indianapolis Center
Tue 05:41:24 AM 38.9517 -82.6803 166° South 214 246 9,000  Level Indianapolis Center
Tue 05:42:24 AM 38.8939 -82.6597 165° South 216 249 9,000  Level Indianapolis Center
Tue 05:43:25 AM 38.8364 -82.6403 165° South 215 247 9,000  Level Indianapolis Center
Tue 05:44:25 AM 38.7781 -82.6200 165° South 216 249 9,000  Level Indianapolis Center
Tue 05:45:26 AM 38.7203 -82.5997 165° South 215 247 9,000  Level Indianapolis Center
Tue 05:46:27 AM 38.6628 -82.5797 165° South 215 247 9,000  Level Indianapolis Center
Tue 05:47:27 AM 38.6033 -82.5597 165° South 215 247 9,000  Level Indianapolis Center
Tue 05:48:28 AM 38.5453 -82.5417 166° South 215 247 9,000  Level Indianapolis Center
Tue 05:49:29 AM 38.4872 -82.5219 165° South 215 247 9,000  Level Indianapolis Center
Tue 05:50:29 AM 38.4289 -82.5014 165° South 217 250 9,000  Level Indianapolis Center
Tue 05:51:30 AM 38.3725 -82.4831 166° South 217 250 9,000  Level Indianapolis Center
Tue 05:52:30 AM 38.3150 -82.4628 165° South 214 246 9,000  Level Indianapolis Center
Tue 05:53:31 AM 38.2578 -82.4447 166° South 211 243 9,000  Level Indianapolis Center
Tue 05:54:32 AM 38.2003 -82.4250 165° South 213 245 9,000  Level Indianapolis Center
Tue 05:55:32 AM 38.1431 -82.4050 165° South 213 245 9,000 50 Level Indianapolis Center
Tue 05:56:33 AM 38.0825 -82.3867 167° South 212 244 9,100 50 Climbing Indianapolis Center
Tue 05:57:33 AM 38.0244 -82.3681 166° South 214 246 9,100  Level Indianapolis Center
Tue 05:58:34 AM 37.9664 -82.3472 164° South 215 247 9,100  Level Indianapolis Center
Tue 05:59:35 AM 37.9078 -82.3286 166° South 216 249 9,100  Level Indianapolis Center
Tue 06:00:35 AM 37.8494 -82.3092 165° South 216 249 9,100  Level Indianapolis Center
Tue 06:01:36 AM 37.7911 -82.2894 165° South 216 249 9,100  Level Indianapolis Center
Tue 06:02:36 AM 37.7322 -82.2711 166° South 216 249 9,100 -50 Level Indianapolis Center
Tue 06:03:37 AM 37.6736 -82.2506 164° South 217 250 9,000  Descending Indianapolis Center
Tue 06:04:38 AM 37.6150 -82.2322 166° South 216 249 9,100 50 Climbing Indianapolis Center
Tue 06:05:38 AM 37.5569 -82.2136 166° South 215 247 9,100 -50 Level Indianapolis Center
Tue 06:06:39 AM 37.4983 -82.1939 165° South 216 249 9,000  Descending Indianapolis Center
Tue 06:07:40 AM 37.4408 -82.1753 166° South 213 245 9,100  Climbing Indianapolis Center
Tue 06:08:40 AM 37.3728 -82.1514 164° South 215 247 9,000  Descending Indianapolis Center
Tue 06:09:41 AM 37.3153 -82.1319 165° South 214 246 9,100 49 Climbing Indianapolis Center
Tue 06:10:42 AM 37.2567 -82.1125 165° South 216 249 9,100  Level Indianapolis Center
Tue 06:11:43 AM 37.1986 -82.0944 166° South 214 246 9,100  Level Indianapolis Center
Tue 06:12:43 AM 37.1417 -82.0758 165° South 211 243 9,100  Level Indianapolis Center
Tue 06:13:44 AM 37.0839 -82.0569 165° South 212 244 9,100  Level Indianapolis Center
Tue 06:14:45 AM 37.0258 -82.0372 165° South 215 247 9,100  Level Indianapolis Center
Tue 06:15:45 AM 36.9669 -82.0192 166° South 217 250 9,100 -50 Level Indianapolis Center
Tue 06:16:46 AM 36.9097 -82.0008 166° South 212 244 9,000 -49 Descending Indianapolis Center
Tue 06:17:47 AM 36.8514 -81.9817 165° South 214 246 9,000  Level Indianapolis Center
Tue 06:18:48 AM 36.7931 -81.9628 165° South 214 246 9,000 50 Level Indianapolis Center
Tue 06:19:48 AM 36.7361 -81.9444 166° South 212 244 9,100 50 Climbing Indianapolis Center
Tue 06:20:49 AM 36.6778 -81.9256 165° South 214 246 9,100  Level Indianapolis Center
Tue 06:21:50 AM 36.6192 -81.9067 165° South 216 249 9,100  Level Indianapolis Center
Tue 06:22:51 AM 36.5606 -81.8886 166° South 217 250 9,100 -49 Level Indianapolis Center
Tue 06:23:52 AM 36.4997 -81.8683 165° South 222 255 9,000  Descending Indianapolis Center
Tue 06:24:56 AM 36.4328 -81.8453 165° South 225 259 9,100 48 Climbing Atlanta Center
Tue 06:25:56 AM 36.3722 -81.8289 168° South 225 259 9,100 -50 Level Atlanta Center
Tue 06:26:56 AM 36.3133 -81.8100 166° South 225 259 9,000  Descending Atlanta Center
Tue 06:27:56 AM 36.2567 -81.7908 165° South 225 259 9,100 50 Climbing Atlanta Center
Tue 06:28:56 AM 36.1958 -81.7719 166° South 225 259 9,100  Level Atlanta Center
Tue 06:29:56 AM 36.1372 -81.7531 165° South 225 259 9,100  Level Atlanta Center
Tue 06:30:56 AM 36.0806 -81.7367 167° South 225 259 9,100  Level Atlanta Center
Tue 06:31:56 AM 36.0197 -81.7178 166° South 225 259 9,100  Level Atlanta Center
Tue 06:32:56 AM 35.9631 -81.7017 167° South 220 253 9,100 -50 Level Atlanta Center
Tue 06:33:56 AM 35.9042 -81.6828 165° South 220 253 9,000  Descending Atlanta Center
Tue 06:34:56 AM 35.8517 -81.6639 164° South 220 253 9,100 -50 Climbing Atlanta Center
Tue 06:35:56 AM 35.7931 -81.6475 167° South 220 253 8,900 -584 Descending Atlanta Center
Tue 06:36:49 AM 35.7322 -81.6289 166° South 227 261 8,000 -857 Descending Atlanta Center
Tue 06:37:13 AM 35.7069 -81.6219 167° South 234 269 7,800 -627 Descending Atlanta Center
Tue 06:37:56 AM 35.6669 -81.6078 164° South 228 262 7,300 -658 Descending Atlanta Center
Tue 06:38:26 AM 35.6292 -81.5961 166° South 242 278 7,000 -300 Descending Atlanta Center
Tue 06:38:56 AM 35.6039 -81.5842 159° South 238 274 7,000  Level Atlanta Center
Tue 06:39:27 AM 35.5761 -81.5517 136° Southeast 237 273 7,000  Level Atlanta Center
Tue 06:39:56 AM 35.5611 -81.5267 126° Southeast 231 266 7,000 -689 Level Atlanta Center
Tue 06:40:28 AM 35.5475 -81.4761 108° East 232 267 6,300 -1,500 Descending Atlanta Center
Tue 06:40:56 AM 35.5492 -81.4481 86° East 226 260 5,500 -1,556 Descending Atlanta Center
Tue 06:41:22 AM 35.5503 -81.4019 88° East 255 293 4,900 -1,000 Descending Atlanta Center
Tue 06:41:56 AM 35.5536 -81.3661 83° East 232 267 4,500 -774 Descending Atlanta Center
Tue 06:42:24 AM 35.5567 -81.3228 85° East 229 264 4,100 -500 Descending Atlanta Center
Tue 06:42:56 AM 35.5603 -81.2919 82° East 227 261 4,000 -200 Descending Atlanta Center
Tue 06:43:24 AM 35.5656 -81.2533 80° East 201 231 3,900 -100 Descending Atlanta Center
Tue 06:43:56 AM 35.5672 -81.2253 86° East 209 241 3,900 109 Level Atlanta Center
Tue 06:44:19 AM 35.5725 -81.1919 79° East 188 216 4,000  Climbing Atlanta Center
Tue 06:44:56 AM 35.5822 -81.1633 67° East 189 217 3,900  Descending Atlanta Center
Tue 06:45:20 AM 35.5942 -81.1350 63° Northeast 187 215 4,000 100 Climbing Atlanta Center
Tue 06:45:56 AM 35.5997 -81.0989 79° East 183 211 4,000  Level Atlanta Center
Tue 06:46:20 AM 35.6008 -81.0658 88° East 204 235 4,000 -76 Level Atlanta Center
Tue 06:47:15 AM 35.5994 -81.0044 92° East 207 238 3,900 -55 Descending Atlanta Center
Tue 06:48:10 AM 35.5650 -80.9675 139° Southeast 201 231 3,900 47 Level Atlanta Center
Tue 06:49:23 AM 35.5025 -80.9647 178° South 179 206 4,000 43 Climbing Atlanta Center
Tue 06:50:29 AM 35.4439 -80.9592 176° South 182 209 4,000  Level Atlanta Center
Tue 06:51:30 AM 35.3936 -80.9561 177° South 176 203 4,000 -365 Level Atlanta Center
Tue 06:52:24 AM 35.3519 -80.9500 173° South 169 194 3,300 -887 Descending Atlanta Center
Tue 06:53:25 AM 35.3058 -80.9467 177° South 168 193 2,300 -836 Descending Atlanta Center
Tue 06:54:26 AM 35.2661 -80.9406 173° South 140 161 1,600 -645 Descending Atlanta Center
Tue 06:55:26 AM 35.2347 -80.9392 178° South 102 117 1,000 -600 Descending Atlanta Center
Tue 06:57:00 AM 35.2137 -80.9491 39° Northeast  Level Estimated
Tue 07:04:00 AM 35.2137 -80.9491 39° Northeast  Level Estimated

Login

Don't have an account? Register now (free) for customized features, flight alerts, and more!